createdAt,value
2017-11-14T00:01:05.921Z,-1.5
2017-11-14T00:02:24.584Z,-1.5
2017-11-14T00:03:43.272Z,-1.4
2017-11-14T00:05:01.991Z,-1.3
2017-11-14T00:06:20.654Z,-1.3
2017-11-14T00:07:39.370Z,-1.2
2017-11-14T00:08:58.071Z,-1.2
2017-11-14T00:10:16.784Z,-1.1
2017-11-14T00:11:35.479Z,-1
2017-11-14T00:12:54.154Z,-0.8
2017-11-14T00:14:12.889Z,-0.8
2017-11-14T00:15:31.653Z,-0.7
2017-11-14T00:16:50.358Z,-0.7
2017-11-14T00:18:09.048Z,-0.8
2017-11-14T00:19:27.746Z,-1
2017-11-14T00:20:46.490Z,-1
2017-11-14T00:22:05.191Z,-1
2017-11-14T00:23:23.867Z,-1.2
2017-11-14T00:24:42.569Z,-1.2
2017-11-14T00:26:01.237Z,-1.2
2017-11-14T00:27:19.970Z,-1.3
2017-11-14T00:28:38.635Z,-1.4
2017-11-14T00:29:57.380Z,-1.4
2017-11-14T00:31:16.044Z,-1.5
2017-11-14T00:32:34.707Z,-1.4
2017-11-14T00:33:53.373Z,-1.2
2017-11-14T00:35:12.059Z,-1.2
2017-11-14T00:36:30.791Z,-1.3
2017-11-14T00:37:49.478Z,-1.4
2017-11-14T00:39:08.158Z,-1.4
2017-11-14T00:40:26.869Z,-1.4
2017-11-14T00:41:45.542Z,-1.5
2017-11-14T00:43:04.210Z,-1.5
2017-11-14T00:44:22.881Z,-1.6
2017-11-14T00:45:41.600Z,-1.6
2017-11-14T00:47:00.260Z,-1.7
2017-11-14T00:48:18.932Z,-1.7
2017-11-14T00:49:37.603Z,-1.8
2017-11-14T00:50:56.300Z,-1.8
2017-11-14T00:52:14.989Z,-1.8
2017-11-14T00:53:33.714Z,-1.8
2017-11-14T00:54:52.393Z,-1.9
2017-11-14T00:56:11.062Z,-1.9
2017-11-14T00:57:29.781Z,-1.9
2017-11-14T00:58:48.470Z,-1.9
2017-11-14T01:00:07.136Z,-1.9
2017-11-14T01:01:25.838Z,-1.9
2017-11-14T01:02:44.508Z,-1.9
2017-11-14T01:04:03.180Z,-1.9
2017-11-14T01:05:21.851Z,-1.9
2017-11-14T01:06:40.552Z,-1.9
2017-11-14T01:07:59.234Z,-1.9
2017-11-14T01:09:17.900Z,-1.9
2017-11-14T01:10:36.586Z,-1.9
2017-11-14T01:11:55.264Z,-1.8
2017-11-14T01:13:13.934Z,-1.6
2017-11-14T01:14:32.607Z,-1.4
2017-11-14T01:15:51.302Z,-1.2
2017-11-14T01:17:10.008Z,-1
2017-11-14T01:18:28.721Z,-0.8
2017-11-14T01:19:47.442Z,-0.6
2017-11-14T01:21:06.179Z,-0.5
2017-11-14T01:22:24.850Z,-0.7
2017-11-14T01:23:43.547Z,-0.9
2017-11-14T01:25:02.218Z,-1.1
2017-11-14T01:26:20.887Z,-1.2
2017-11-14T01:27:39.592Z,-1.3
2017-11-14T01:28:58.263Z,-1.5
2017-11-14T01:30:16.945Z,-1.5
2017-11-14T01:31:35.607Z,-1.6
2017-11-14T01:32:54.283Z,-1.6
2017-11-14T01:34:12.951Z,-1.7
2017-11-14T01:35:31.663Z,-1.7
2017-11-14T01:36:50.337Z,-1.8
2017-11-14T01:38:09.076Z,-1.8
2017-11-14T01:39:27.811Z,-1.9
2017-11-14T01:40:46.486Z,-1.9
2017-11-14T01:42:05.180Z,-2
2017-11-14T01:43:23.847Z,-2
2017-11-14T01:44:42.507Z,-2
2017-11-14T01:46:01.200Z,-2.1
2017-11-14T01:47:19.866Z,-2.1
2017-11-14T01:48:38.543Z,-2
2017-11-14T01:49:57.206Z,-2
2017-11-14T01:51:15.868Z,-2.1
2017-11-14T01:52:34.586Z,-2.1
2017-11-14T01:53:53.262Z,-2
2017-11-14T01:55:11.958Z,-2
2017-11-14T01:56:30.620Z,-2
2017-11-14T01:57:49.328Z,-2.1
2017-11-14T01:59:08.049Z,-2.1
2017-11-14T02:00:26.716Z,-2.1
2017-11-14T02:01:45.419Z,-2.1
2017-11-14T02:03:04.085Z,-2.1
2017-11-14T02:04:22.803Z,-2.2
2017-11-14T02:05:41.469Z,-2.2
2017-11-14T02:07:00.130Z,-2.2
2017-11-14T02:08:18.852Z,-2.2
2017-11-14T02:09:37.549Z,-2.2
2017-11-14T02:10:56.244Z,-2
2017-11-14T02:12:14.945Z,-2
2017-11-14T02:13:33.653Z,-2
2017-11-14T02:14:52.376Z,-1.9
2017-11-14T02:16:11.101Z,-1.9
2017-11-14T02:17:29.764Z,-1.8
2017-11-14T02:18:48.464Z,-1.9
2017-11-14T02:20:07.160Z,-1.9
2017-11-14T02:21:25.824Z,-1.9
2017-11-14T02:22:44.560Z,-2
2017-11-14T02:24:03.264Z,-2
2017-11-14T02:25:21.973Z,-2.1
2017-11-14T02:26:40.645Z,-2.1
2017-11-14T02:27:59.309Z,-2.2
2017-11-14T02:29:17.975Z,-2.2
2017-11-14T02:30:36.701Z,-2.2
2017-11-14T02:31:55.401Z,-2.2
2017-11-14T02:33:14.063Z,-2.3
2017-11-14T02:34:32.764Z,-2.3
2017-11-14T02:35:51.477Z,-2.2
2017-11-14T02:37:10.222Z,-2.3
2017-11-14T02:38:28.895Z,-2.3
2017-11-14T02:39:47.561Z,-2.3
2017-11-14T02:41:06.278Z,-2.2
2017-11-14T02:42:24.976Z,-2.2
2017-11-14T02:43:43.644Z,-2.2
2017-11-14T02:45:02.351Z,-2.3
2017-11-14T02:46:21.077Z,-2.4
2017-11-14T02:47:39.756Z,-2.4
2017-11-14T02:48:58.413Z,-2.4
2017-11-14T02:50:17.075Z,-2.4
2017-11-14T02:51:35.795Z,-2.4
2017-11-14T02:52:54.459Z,-2.4
2017-11-14T02:54:13.135Z,-2.4
2017-11-14T02:55:31.812Z,-2.3
2017-11-14T02:56:50.508Z,-2.2
2017-11-14T02:58:09.205Z,-2.2
2017-11-14T02:59:27.876Z,-2.2
2017-11-14T03:00:46.570Z,-2.2
2017-11-14T03:02:05.242Z,-2.2
2017-11-14T03:03:23.915Z,-2.3
2017-11-14T03:04:42.612Z,-2.3
2017-11-14T03:06:01.276Z,-2.3
2017-11-14T03:07:19.956Z,-2.3
2017-11-14T03:08:38.628Z,-2.3
2017-11-14T03:09:57.303Z,-2.2
2017-11-14T03:11:15.995Z,-2.3
2017-11-14T03:12:34.729Z,-2.3
2017-11-14T03:13:53.403Z,-2.4
2017-11-14T03:15:12.099Z,-2.5
2017-11-14T03:16:30.792Z,-2.5
2017-11-14T03:17:49.466Z,-2.4
2017-11-14T03:19:08.137Z,-2.3
2017-11-14T03:20:26.800Z,-2.2
2017-11-14T03:21:45.465Z,-2
2017-11-14T03:23:04.192Z,-2.1
2017-11-14T03:24:22.869Z,-2.2
2017-11-14T03:25:41.541Z,-2.3
2017-11-14T03:27:00.218Z,-2.4
2017-11-14T03:28:18.911Z,-2.5
2017-11-14T03:29:37.591Z,-2.5
2017-11-14T03:30:56.265Z,-2.4
2017-11-14T03:32:14.930Z,-2.2
2017-11-14T03:33:33.668Z,-2.2
2017-11-14T03:34:52.334Z,-2.3
2017-11-14T03:36:11.049Z,-2.4
2017-11-14T03:37:29.725Z,-2.6
2017-11-14T03:38:48.395Z,-2.7
2017-11-14T03:40:07.060Z,-2.7
2017-11-14T03:41:25.802Z,-2.6
2017-11-14T03:42:44.502Z,-2.5
2017-11-14T03:44:03.191Z,-2.5
2017-11-14T03:45:21.917Z,-2.5
2017-11-14T03:46:40.595Z,-2.5
2017-11-14T03:47:59.277Z,-2.4
2017-11-14T03:49:18.011Z,-2.4
2017-11-14T03:50:36.671Z,-2.4
2017-11-14T03:51:55.333Z,-2.3
2017-11-14T03:53:14.006Z,-2.3
2017-11-14T03:54:32.720Z,-2.3
2017-11-14T03:55:51.393Z,-2.2
2017-11-14T03:57:10.052Z,-2.2
2017-11-14T03:58:28.723Z,-2.2
2017-11-14T03:59:47.406Z,-2.2
2017-11-14T04:01:06.146Z,-2.3
2017-11-14T04:02:24.809Z,-2.3
2017-11-14T04:03:43.525Z,-2.4
2017-11-14T04:05:02.198Z,-2.5
2017-11-14T04:06:20.869Z,-2.5
2017-11-14T04:07:39.530Z,-2.5
2017-11-14T04:08:58.229Z,-2.4
2017-11-14T04:10:16.920Z,-2.3
2017-11-14T04:11:35.646Z,-2.2
2017-11-14T04:12:54.304Z,-2.2
2017-11-14T04:14:12.983Z,-2.2
2017-11-14T04:15:31.675Z,-2.3
2017-11-14T04:16:50.415Z,-2.3
2017-11-14T04:18:09.098Z,-2.2
2017-11-14T04:19:27.800Z,-2
2017-11-14T04:20:46.486Z,-1.9
2017-11-14T04:22:05.192Z,-1.8
2017-11-14T04:23:23.870Z,-1.9
2017-11-14T04:24:42.539Z,-2
2017-11-14T04:26:01.228Z,-2.2
2017-11-14T04:27:19.941Z,-2.3
2017-11-14T04:28:38.623Z,-2.4
2017-11-14T04:29:57.293Z,-2.4
2017-11-14T04:31:15.996Z,-2.5
2017-11-14T04:32:34.673Z,-2.5
2017-11-14T04:33:53.339Z,-2.5
2017-11-14T04:35:12.000Z,-2.5
2017-11-14T04:36:30.699Z,-2.5
2017-11-14T04:37:49.371Z,-2.5
2017-11-14T04:39:08.042Z,-2.6
2017-11-14T04:40:26.701Z,-2.6
2017-11-14T04:41:45.472Z,-2.6
2017-11-14T04:43:04.146Z,-2.7
2017-11-14T04:44:22.868Z,-2.7
2017-11-14T04:45:41.529Z,-2.8
2017-11-14T04:47:00.262Z,-2.8
2017-11-14T04:48:18.975Z,-2.8
2017-11-14T04:49:37.678Z,-2.8
2017-11-14T04:50:56.348Z,-2.8
2017-11-14T04:52:15.074Z,-2.8
2017-11-14T04:53:33.790Z,-2.7
2017-11-14T04:54:52.463Z,-2.6
2017-11-14T04:56:11.131Z,-2.4
2017-11-14T04:57:29.854Z,-2.2
2017-11-14T04:58:48.525Z,-2
2017-11-14T05:00:07.203Z,-1.9
2017-11-14T05:01:25.918Z,-1.8
2017-11-14T05:02:44.624Z,-1.8
2017-11-14T05:04:03.303Z,-1.7
2017-11-14T05:05:21.979Z,-1.7
2017-11-14T05:06:40.640Z,-1.7
2017-11-14T05:07:59.345Z,-1.7
2017-11-14T05:09:18.063Z,-1.6
2017-11-14T05:10:36.775Z,-1.1
2017-11-14T05:11:55.476Z,-0.7
2017-11-14T05:13:14.158Z,-0.5
2017-11-14T05:14:32.823Z,-0.4
2017-11-14T05:15:51.532Z,-0.3
2017-11-14T05:17:10.205Z,-0.2
2017-11-14T05:18:28.889Z,-0.2
2017-11-14T05:19:47.633Z,-0.1
2017-11-14T05:21:06.332Z,-0.1
2017-11-14T05:22:24.999Z,0
2017-11-14T05:23:43.738Z,0
2017-11-14T05:25:02.412Z,0
2017-11-14T05:26:21.081Z,0.1
2017-11-14T05:27:39.729Z,0.1
2017-11-14T05:28:58.395Z,0.1
2017-11-14T05:30:17.053Z,0.1
2017-11-14T05:31:35.698Z,0.1
2017-11-14T05:32:54.339Z,0.1
2017-11-14T05:34:13.070Z,0.1
2017-11-14T05:35:31.745Z,0.2
2017-11-14T05:36:50.420Z,0.2
2017-11-14T05:38:09.072Z,0.3
2017-11-14T05:39:27.784Z,0.4
2017-11-14T05:40:46.469Z,0.6
2017-11-14T05:42:05.129Z,0.6
2017-11-14T05:43:23.776Z,0.5
2017-11-14T05:44:42.453Z,0.5
2017-11-14T05:46:01.104Z,0.6
2017-11-14T05:47:19.744Z,0.6
2017-11-14T05:48:38.444Z,0.6
2017-11-14T05:49:57.183Z,0.6
2017-11-14T05:51:15.874Z,0.7
2017-11-14T05:52:34.574Z,0.9
2017-11-14T05:53:53.252Z,1
2017-11-14T05:55:11.929Z,1
2017-11-14T05:56:30.587Z,1.1
2017-11-14T05:57:49.237Z,1.1
2017-11-14T05:59:07.886Z,1.2
2017-11-14T06:00:26.626Z,1.3
2017-11-14T06:01:45.310Z,1.3
2017-11-14T06:03:03.999Z,1.3
2017-11-14T06:04:22.647Z,1.3
2017-11-14T06:05:41.320Z,1.3
2017-11-14T06:07:00.014Z,1.3
2017-11-14T06:08:18.718Z,1.2
2017-11-14T06:09:37.366Z,1.3
2017-11-14T06:10:56.027Z,1.2
2017-11-14T06:12:14.674Z,1.3
2017-11-14T06:13:33.320Z,1.2
2017-11-14T06:14:51.976Z,1.1
2017-11-14T06:16:10.676Z,1.1
2017-11-14T06:17:29.331Z,0.9
2017-11-14T06:18:48.034Z,0.8
2017-11-14T06:20:06.703Z,0.7
2017-11-14T06:21:25.406Z,0.6
2017-11-14T06:22:44.088Z,0.6
2017-11-14T06:24:02.750Z,0.5
2017-11-14T06:25:21.401Z,0.6
2017-11-14T06:26:40.102Z,0.8
2017-11-14T06:27:58.756Z,1
2017-11-14T06:29:17.419Z,1
2017-11-14T06:30:36.067Z,1.2
2017-11-14T06:31:54.743Z,1.1
2017-11-14T06:33:13.470Z,1.1
2017-11-14T06:34:32.122Z,1.2
2017-11-14T06:35:50.772Z,1.2
2017-11-14T06:37:09.441Z,1.3
2017-11-14T06:38:28.164Z,1.5
2017-11-14T06:39:46.840Z,1.5
2017-11-14T06:41:05.500Z,1.5
2017-11-14T06:42:24.158Z,1.6
2017-11-14T06:43:42.840Z,1.6
2017-11-14T06:45:01.494Z,1.7
2017-11-14T06:46:20.161Z,1.7
2017-11-14T06:47:38.843Z,1.7
2017-11-14T06:48:57.548Z,1.7
2017-11-14T06:50:16.271Z,1.7
2017-11-14T06:51:35.014Z,1.7
2017-11-14T06:52:53.698Z,1.8
2017-11-14T06:54:12.429Z,1.8
2017-11-14T06:55:31.137Z,1.8
2017-11-14T06:56:49.803Z,1.9
2017-11-14T06:58:08.469Z,2
2017-11-14T06:59:27.112Z,2
2017-11-14T07:00:45.780Z,2
2017-11-14T07:02:04.428Z,1.9
2017-11-14T07:03:23.103Z,1.9
2017-11-14T07:04:41.810Z,2.1
2017-11-14T07:06:00.483Z,2.2
2017-11-14T07:07:19.152Z,2.2
2017-11-14T07:08:37.826Z,2.2
2017-11-14T07:09:56.512Z,2.3
2017-11-14T07:11:15.211Z,2.3
2017-11-14T07:12:33.910Z,2.2
2017-11-14T07:13:52.616Z,2.2
2017-11-14T07:15:11.272Z,2.2
2017-11-14T07:16:29.946Z,2.2
2017-11-14T07:17:48.595Z,2.2
2017-11-14T07:19:07.294Z,2.2
2017-11-14T07:20:25.946Z,2.2
2017-11-14T07:21:44.605Z,2.3
2017-11-14T07:23:03.287Z,2.2
2017-11-14T07:24:21.977Z,2.2
2017-11-14T07:25:40.660Z,2.1
2017-11-14T07:26:59.325Z,2
2017-11-14T07:28:18.022Z,1.9
2017-11-14T07:29:36.693Z,1.9
2017-11-14T07:30:55.348Z,2
2017-11-14T07:32:13.992Z,2
2017-11-14T07:33:32.671Z,2
2017-11-14T07:34:51.360Z,2
2017-11-14T07:36:10.057Z,2
2017-11-14T07:37:28.704Z,2
2017-11-14T07:38:47.355Z,1.9
2017-11-14T07:40:06.022Z,1.8
2017-11-14T07:41:24.710Z,1.7
2017-11-14T07:42:43.355Z,1.7
2017-11-14T07:44:02.035Z,1.7
2017-11-14T07:45:20.749Z,1.9
2017-11-14T07:46:39.457Z,1.9
2017-11-14T07:47:58.158Z,2
2017-11-14T07:49:16.828Z,2.1
2017-11-14T07:50:35.505Z,2.1
2017-11-14T07:51:54.157Z,2.2
2017-11-14T07:53:12.808Z,2.1
2017-11-14T07:54:31.486Z,2
2017-11-14T07:55:50.166Z,2
2017-11-14T07:57:08.875Z,2
2017-11-14T07:58:27.536Z,2
2017-11-14T07:59:46.234Z,2
2017-11-14T08:01:04.905Z,2.1
2017-11-14T08:02:23.550Z,2.1
2017-11-14T08:03:42.200Z,2.2
2017-11-14T08:05:00.852Z,2.2
2017-11-14T08:06:19.522Z,2.2
2017-11-14T08:07:38.171Z,2.2
2017-11-14T08:08:56.870Z,2.1
2017-11-14T08:10:15.525Z,2.1
2017-11-14T08:11:34.200Z,2
2017-11-14T08:12:52.915Z,2
2017-11-14T08:14:11.588Z,2
2017-11-14T08:15:30.291Z,2
2017-11-14T08:16:48.987Z,2.1
2017-11-14T08:18:07.678Z,2.2
2017-11-14T08:19:26.327Z,2.3
2017-11-14T08:20:44.984Z,2.3
2017-11-14T08:22:03.652Z,2.4
2017-11-14T08:23:22.300Z,2.5
2017-11-14T08:24:40.949Z,2.5
2017-11-14T08:25:59.638Z,2.6
2017-11-14T08:27:18.321Z,2.6
2017-11-14T08:28:37.019Z,2.6
2017-11-14T08:29:55.671Z,2.6
2017-11-14T08:31:14.320Z,2.6
2017-11-14T08:32:33.028Z,2.6
2017-11-14T08:33:51.696Z,2.7
2017-11-14T08:35:10.347Z,2.7
2017-11-14T08:36:28.995Z,2.7
2017-11-14T08:37:47.646Z,2.7
2017-11-14T08:39:06.304Z,2.8
2017-11-14T08:40:24.957Z,2.8
2017-11-14T08:41:43.600Z,2.9
2017-11-14T08:43:02.277Z,2.9
2017-11-14T08:44:20.944Z,3
2017-11-14T08:45:39.661Z,3
2017-11-14T08:46:58.314Z,3.2
2017-11-14T08:48:16.973Z,3.1
2017-11-14T08:49:35.624Z,3.2
2017-11-14T08:50:54.283Z,3.3
2017-11-14T08:52:12.981Z,3.3
2017-11-14T08:53:31.659Z,3.2
2017-11-14T08:54:50.305Z,3.2
2017-11-14T08:56:08.950Z,3.1
2017-11-14T08:57:27.649Z,3.2
2017-11-14T08:58:46.344Z,3.2
2017-11-14T09:00:05.051Z,3.2
2017-11-14T09:01:23.711Z,3.1
2017-11-14T09:02:42.367Z,3.2
2017-11-14T09:04:01.024Z,3.2
2017-11-14T09:05:19.673Z,3.3
2017-11-14T09:06:38.371Z,3.3
2017-11-14T09:07:57.038Z,3.4
2017-11-14T09:09:15.739Z,3.4
2017-11-14T09:10:34.424Z,3.5
2017-11-14T09:11:53.080Z,3.6
2017-11-14T09:13:11.723Z,3.8
2017-11-14T09:14:30.402Z,4
2017-11-14T09:15:49.123Z,4.1
2017-11-14T09:17:07.800Z,4.1
2017-11-14T09:18:26.511Z,4.3
2017-11-14T09:19:45.186Z,4.6
2017-11-14T09:21:03.870Z,4.7
2017-11-14T09:22:22.525Z,4.8
2017-11-14T09:23:41.176Z,4.8
2017-11-14T09:24:59.831Z,4.7
2017-11-14T09:26:18.497Z,4.5
2017-11-14T09:27:37.202Z,4.4
2017-11-14T09:28:55.911Z,4.2
2017-11-14T09:30:14.642Z,4.2
2017-11-14T09:31:33.308Z,4
2017-11-14T09:32:51.978Z,3.9
2017-11-14T09:34:10.633Z,4
2017-11-14T09:35:29.329Z,4.1
2017-11-14T09:36:48.019Z,4
2017-11-14T09:38:06.676Z,4
2017-11-14T09:39:25.333Z,4.1
2017-11-14T09:40:44.018Z,4.1
2017-11-14T09:42:02.714Z,4.2
2017-11-14T09:43:21.367Z,4.1
2017-11-14T09:44:40.016Z,4.1
2017-11-14T09:45:58.676Z,4.1
2017-11-14T09:47:17.355Z,4
2017-11-14T09:48:36.004Z,4.1
2017-11-14T09:49:54.671Z,4
2017-11-14T09:51:13.338Z,4
2017-11-14T09:52:32.039Z,4
2017-11-14T09:53:50.695Z,4
2017-11-14T09:55:09.360Z,4
2017-11-14T09:56:28.048Z,4
2017-11-14T09:57:46.702Z,4
2017-11-14T09:59:05.350Z,4.1
2017-11-14T10:00:24.040Z,4.1
2017-11-14T10:01:42.720Z,4.1
2017-11-14T10:03:01.447Z,4.1
2017-11-14T10:04:20.102Z,4.1
2017-11-14T10:05:38.743Z,4.1
2017-11-14T10:06:57.422Z,4
2017-11-14T10:08:16.069Z,4.1
2017-11-14T10:09:34.723Z,4.2
2017-11-14T10:10:53.412Z,4.2
2017-11-14T10:12:12.083Z,4.3
2017-11-14T10:13:30.736Z,4.3
2017-11-14T10:14:49.431Z,4.3
2017-11-14T10:16:08.082Z,4.3
2017-11-14T10:17:26.770Z,4.4
2017-11-14T10:18:45.490Z,4.5
2017-11-14T10:20:04.211Z,4.6
2017-11-14T10:21:22.866Z,4.8
2017-11-14T10:22:41.525Z,5
2017-11-14T10:24:00.178Z,5.2
2017-11-14T10:25:18.841Z,5.2
2017-11-14T10:26:37.515Z,5.1
2017-11-14T10:27:56.216Z,5.1
2017-11-14T10:29:14.893Z,5
2017-11-14T10:30:33.597Z,4.8
2017-11-14T10:31:52.267Z,4.9
2017-11-14T10:33:10.913Z,4.8
2017-11-14T10:34:29.594Z,4.8
2017-11-14T10:35:48.299Z,5
2017-11-14T10:37:06.955Z,5
2017-11-14T10:38:25.643Z,4.8
2017-11-14T10:39:44.303Z,4.7
2017-11-14T10:41:02.958Z,4.5
2017-11-14T10:42:21.614Z,4.4
2017-11-14T10:43:40.296Z,4.3
2017-11-14T10:44:58.999Z,4.1
2017-11-14T10:46:17.656Z,4
2017-11-14T10:47:36.352Z,4
2017-11-14T10:48:55.012Z,4.1
2017-11-14T10:50:13.689Z,4
2017-11-14T10:51:32.388Z,4
2017-11-14T10:52:51.039Z,4.1
2017-11-14T10:54:09.703Z,4.1
2017-11-14T10:55:28.351Z,4.2
2017-11-14T10:56:47.047Z,4.2
2017-11-14T10:58:05.721Z,4.2
2017-11-14T10:59:24.406Z,4.1
2017-11-14T11:00:43.045Z,4.1
2017-11-14T11:02:01.727Z,4.1
2017-11-14T11:03:20.407Z,4.1
2017-11-14T11:04:39.121Z,4.1
2017-11-14T11:05:57.786Z,4.2
2017-11-14T11:07:16.487Z,4.2
2017-11-14T11:08:35.164Z,4.3
2017-11-14T11:09:53.866Z,4.3
2017-11-14T11:11:12.556Z,4.3
2017-11-14T11:12:31.212Z,4.4
2017-11-14T11:13:49.878Z,4.5
2017-11-14T11:15:08.556Z,4.6
2017-11-14T11:16:27.280Z,4.8
2017-11-14T11:17:45.978Z,5
2017-11-14T11:19:04.622Z,5.1
2017-11-14T11:20:23.299Z,5.4
2017-11-14T11:21:41.968Z,5.7
2017-11-14T11:23:00.626Z,6
2017-11-14T11:24:19.272Z,6.1
2017-11-14T11:25:37.947Z,5.9
2017-11-14T11:26:56.592Z,5.9
2017-11-14T11:28:15.269Z,5.7
2017-11-14T11:29:33.973Z,5.6
2017-11-14T11:30:52.649Z,5.7
2017-11-14T11:32:11.295Z,5.8
2017-11-14T11:33:29.946Z,6.1
2017-11-14T11:34:48.623Z,6.3
2017-11-14T11:36:07.286Z,6.7
2017-11-14T11:37:25.988Z,7
2017-11-14T11:38:44.675Z,7.1
2017-11-14T11:40:03.363Z,7
2017-11-14T11:41:22.030Z,6.6
2017-11-14T11:42:40.677Z,6
2017-11-14T11:43:59.326Z,5.9
2017-11-14T11:45:18.022Z,5.7
2017-11-14T11:46:36.691Z,5.8
2017-11-14T11:47:55.337Z,6.1
2017-11-14T11:49:14.040Z,6.3
2017-11-14T11:50:32.688Z,6.5
2017-11-14T11:51:51.392Z,6.4
2017-11-14T11:53:10.105Z,6.3
2017-11-14T11:54:28.774Z,6.3
2017-11-14T11:55:47.445Z,6.4
2017-11-14T11:57:06.154Z,6.2
2017-11-14T11:58:24.821Z,6.2
2017-11-14T11:59:43.497Z,6.5
2017-11-14T12:01:02.143Z,6.6
2017-11-14T12:02:20.814Z,6.6
2017-11-14T12:03:39.463Z,6.3
2017-11-14T12:04:58.115Z,6.2
2017-11-14T12:06:16.777Z,6.2
2017-11-14T12:07:35.432Z,6.3
2017-11-14T12:08:54.112Z,6.4
2017-11-14T12:10:12.768Z,6.5
2017-11-14T12:11:31.456Z,6.7
2017-11-14T12:12:50.115Z,6.7
2017-11-14T12:14:08.797Z,6.9
2017-11-14T12:15:27.498Z,7.2
2017-11-14T12:16:46.167Z,7.3
2017-11-14T12:18:04.899Z,7.3
2017-11-14T12:19:23.580Z,7.7
2017-11-14T12:20:42.230Z,9.2
2017-11-14T12:22:00.940Z,12.4
2017-11-14T12:23:19.644Z,13.9
2017-11-14T12:24:38.335Z,15.8
2017-11-14T12:25:57.040Z,17.4
2017-11-14T12:27:15.712Z,18.1
2017-11-14T12:28:34.411Z,17.7
2017-11-14T12:29:53.077Z,17.6
2017-11-14T12:31:11.740Z,18
2017-11-14T12:32:30.411Z,17.1
2017-11-14T12:33:49.108Z,16.5
2017-11-14T12:35:07.829Z,17.9
2017-11-14T12:36:26.489Z,19.3
2017-11-14T12:37:45.204Z,19
2017-11-14T12:39:03.892Z,20.4
2017-11-14T12:40:22.558Z,19.8
2017-11-14T12:41:41.229Z,20.9
2017-11-14T12:42:59.900Z,21.8
2017-11-14T12:44:18.620Z,21.9
2017-11-14T12:45:37.295Z,21.7
2017-11-14T12:46:55.965Z,22.4
2017-11-14T12:48:14.630Z,21.5
2017-11-14T12:49:33.321Z,22.3
2017-11-14T12:50:51.998Z,21.8
2017-11-14T12:52:10.659Z,18.8
2017-11-14T12:53:29.344Z,19.3
2017-11-14T12:54:48.042Z,19.2
2017-11-14T12:56:06.712Z,17.5
2017-11-14T12:57:25.438Z,14.4
2017-11-14T12:58:44.112Z,12.3
2017-11-14T13:00:02.789Z,12.6
2017-11-14T13:01:21.454Z,11.4
2017-11-14T13:02:40.146Z,10.3
2017-11-14T13:03:58.800Z,9.1
2017-11-14T13:05:17.480Z,8.6
2017-11-14T13:06:36.138Z,8.3
2017-11-14T13:07:54.793Z,8
2017-11-14T13:09:13.520Z,8
2017-11-14T13:10:32.237Z,7.7
2017-11-14T13:11:50.908Z,7.5
2017-11-14T13:13:09.559Z,7.5
2017-11-14T13:14:28.214Z,7.3
2017-11-14T13:15:46.858Z,7.1
2017-11-14T13:17:05.505Z,7.6
2017-11-14T13:18:24.153Z,7.5
2017-11-14T13:19:42.857Z,7.7
2017-11-14T13:21:01.562Z,7.8
2017-11-14T13:22:20.210Z,8
2017-11-14T13:23:38.860Z,7.4
2017-11-14T13:24:57.504Z,7.3
2017-11-14T13:26:16.151Z,7.6
2017-11-14T13:27:34.821Z,7.7
2017-11-14T13:28:53.483Z,7.8
2017-11-14T13:30:12.126Z,8.2
2017-11-14T13:31:30.854Z,8.2
2017-11-14T13:32:49.498Z,8
2017-11-14T13:34:08.152Z,8.1
2017-11-14T13:35:26.801Z,8.1
2017-11-14T13:36:45.476Z,7.8
2017-11-14T13:38:04.175Z,8
2017-11-14T13:39:22.882Z,7.7
2017-11-14T13:40:41.576Z,7.6
2017-11-14T13:42:00.294Z,7.6
2017-11-14T13:43:18.984Z,7.3
2017-11-14T13:44:37.671Z,7
2017-11-14T13:45:56.311Z,6.8
2017-11-14T13:47:14.985Z,6.5
2017-11-14T13:48:33.657Z,6.3
2017-11-14T13:49:52.318Z,6.2
2017-11-14T13:51:10.977Z,6.1
2017-11-14T13:52:29.628Z,6.3
2017-11-14T13:53:48.299Z,6.5
2017-11-14T13:55:06.946Z,6.4
2017-11-14T13:56:25.595Z,6.5
2017-11-14T13:57:44.244Z,6.4
2017-11-14T13:59:02.907Z,6.6
2017-11-14T14:00:21.604Z,6.3
2017-11-14T14:01:40.252Z,6.3
2017-11-14T14:02:58.921Z,6.5
2017-11-14T14:04:17.602Z,6.6
2017-11-14T14:05:36.242Z,6.4
2017-11-14T14:06:54.897Z,6.4
2017-11-14T14:08:13.568Z,6.6
2017-11-14T14:09:32.249Z,6.5
2017-11-14T14:10:50.938Z,6.4
2017-11-14T14:12:09.598Z,6.3
2017-11-14T14:13:28.297Z,6
2017-11-14T14:14:47.001Z,6
2017-11-14T14:16:05.651Z,5.9
2017-11-14T14:17:24.299Z,5.7
2017-11-14T14:18:43.058Z,5.6
2017-11-14T14:20:01.699Z,5.5
2017-11-14T14:21:20.349Z,5.4
2017-11-14T14:22:38.992Z,5.5
2017-11-14T14:23:57.721Z,5.4
2017-11-14T14:25:16.440Z,5.5
2017-11-14T14:26:35.094Z,5.5
2017-11-14T14:27:53.759Z,5.2
2017-11-14T14:29:12.424Z,5.2
2017-11-14T14:30:31.083Z,5.4
2017-11-14T14:31:49.746Z,5.5
2017-11-14T14:33:08.445Z,5.6
2017-11-14T14:34:27.147Z,5.4
2017-11-14T14:35:45.803Z,5.4
2017-11-14T14:37:04.446Z,5.3
2017-11-14T14:38:23.114Z,5.3
2017-11-14T14:39:41.784Z,5.1
2017-11-14T14:41:00.477Z,5.2
2017-11-14T14:42:19.148Z,5.1
2017-11-14T14:43:37.886Z,5
2017-11-14T14:44:56.545Z,4.9
2017-11-14T14:46:15.248Z,4.8
2017-11-14T14:47:33.893Z,4.9
2017-11-14T14:48:52.555Z,4.7
2017-11-14T14:50:11.240Z,4.7
2017-11-14T14:51:29.881Z,4.6
2017-11-14T14:52:48.516Z,4.5
2017-11-14T14:54:07.204Z,4.4
2017-11-14T14:55:25.895Z,4.4
2017-11-14T14:56:44.540Z,4.3
2017-11-14T14:58:03.183Z,4.5
2017-11-14T14:59:21.825Z,4.5
2017-11-14T15:00:40.483Z,4.4
2017-11-14T15:01:59.162Z,4.4
2017-11-14T15:03:17.831Z,4.5
2017-11-14T15:04:36.524Z,4.6
2017-11-14T15:05:55.216Z,4.5
2017-11-14T15:07:13.914Z,4.3
2017-11-14T15:08:32.554Z,4.2
2017-11-14T15:09:51.255Z,4.2
2017-11-14T15:11:09.927Z,4.1
2017-11-14T15:12:28.576Z,4.1
2017-11-14T15:13:47.258Z,4.1
2017-11-14T15:15:05.907Z,4.2
2017-11-14T15:16:24.592Z,4.2
2017-11-14T15:17:43.320Z,4.1
2017-11-14T15:19:02.021Z,4.2
2017-11-14T15:20:20.667Z,4.1
2017-11-14T15:21:39.387Z,4.2
2017-11-14T15:22:58.045Z,4.2
2017-11-14T15:24:16.719Z,4.1
2017-11-14T15:25:35.366Z,4
2017-11-14T15:26:54.019Z,4
2017-11-14T15:28:12.727Z,3.9
2017-11-14T15:29:31.378Z,3.8
2017-11-14T15:30:50.024Z,3.7
2017-11-14T15:32:08.677Z,3.7
2017-11-14T15:33:27.355Z,3.8
2017-11-14T15:34:45.999Z,3.8
2017-11-14T15:36:04.647Z,3.8
2017-11-14T15:37:23.315Z,3.8
2017-11-14T15:38:41.966Z,3.8
2017-11-14T15:40:00.650Z,3.8
2017-11-14T15:41:19.311Z,3.8
2017-11-14T15:42:37.990Z,3.8
2017-11-14T15:43:56.675Z,3.7
2017-11-14T15:45:15.316Z,3.7
2017-11-14T15:46:34.000Z,3.7
2017-11-14T15:47:52.682Z,3.7
2017-11-14T15:49:11.353Z,3.7
2017-11-14T15:50:30.049Z,3.6
2017-11-14T15:51:48.709Z,3.5
2017-11-14T15:53:07.384Z,3.5
2017-11-14T15:54:26.082Z,3.5
2017-11-14T15:55:44.729Z,3.5
2017-11-14T15:57:03.371Z,3.5
2017-11-14T15:58:22.033Z,3.5
2017-11-14T15:59:40.719Z,3.5
2017-11-14T16:00:59.406Z,3.5
2017-11-14T16:02:18.113Z,3.5
2017-11-14T16:03:36.798Z,3.6
2017-11-14T16:04:55.443Z,3.5
2017-11-14T16:06:14.150Z,3.6
2017-11-14T16:07:32.813Z,3.6
2017-11-14T16:08:51.541Z,3.6
2017-11-14T16:10:10.237Z,3.6
2017-11-14T16:11:28.882Z,3.6
2017-11-14T16:12:47.598Z,3.6
2017-11-14T16:14:06.285Z,3.4
2017-11-14T16:15:24.984Z,3.3
2017-11-14T16:16:43.629Z,3.2
2017-11-14T16:18:02.279Z,3.2
2017-11-14T16:19:20.983Z,3.2
2017-11-14T16:20:39.655Z,3.2
2017-11-14T16:21:58.301Z,3.1
2017-11-14T16:23:16.946Z,3.1
2017-11-14T16:24:35.628Z,3.1
2017-11-14T16:25:54.323Z,3.1
2017-11-14T16:27:13.021Z,3.1
2017-11-14T16:28:31.677Z,3
2017-11-14T16:29:50.365Z,2.8
2017-11-14T16:31:09.007Z,2.7
2017-11-14T16:32:27.706Z,2.6
2017-11-14T16:33:46.354Z,2.6
2017-11-14T16:35:05.039Z,2.5
2017-11-14T16:36:23.696Z,2.5
2017-11-14T16:37:42.374Z,2.4
2017-11-14T16:39:01.023Z,2.3
2017-11-14T16:40:19.702Z,2.3
2017-11-14T16:41:38.358Z,2.3
2017-11-14T16:42:57.008Z,2.3
2017-11-14T16:44:15.654Z,2.3
2017-11-14T16:45:34.310Z,2.3
2017-11-14T16:46:53.005Z,2.4
2017-11-14T16:48:11.657Z,2.4
2017-11-14T16:49:30.301Z,2.4
2017-11-14T16:50:49.006Z,2.5
2017-11-14T16:52:07.676Z,2.5
2017-11-14T16:53:26.328Z,2.5
2017-11-14T16:54:44.992Z,2.6
2017-11-14T16:56:03.677Z,2.8
2017-11-14T16:57:22.404Z,2.9
2017-11-14T16:58:41.067Z,3
2017-11-14T16:59:59.766Z,3
2017-11-14T17:01:18.448Z,3
2017-11-14T17:02:37.149Z,3
2017-11-14T17:03:55.838Z,3
2017-11-14T17:05:14.497Z,3.1
2017-11-14T17:06:33.190Z,3.2
2017-11-14T17:07:51.868Z,3.2
2017-11-14T17:09:10.520Z,3.2
2017-11-14T17:10:29.218Z,3.2
2017-11-14T17:11:47.870Z,3.1
2017-11-14T17:13:06.532Z,3.1
2017-11-14T17:14:25.177Z,3.1
2017-11-14T17:15:43.864Z,3.1
2017-11-14T17:17:02.529Z,3.2
2017-11-14T17:18:21.217Z,3.2
2017-11-14T17:19:39.897Z,3.3
2017-11-14T17:20:58.551Z,3.3
2017-11-14T17:22:17.225Z,3.4
2017-11-14T17:23:35.899Z,3.5
2017-11-14T17:24:54.595Z,3.5
2017-11-14T17:26:13.238Z,3.6
2017-11-14T17:27:31.887Z,3.6
2017-11-14T17:28:50.531Z,3.6
2017-11-14T17:30:09.208Z,3.6
2017-11-14T17:31:27.911Z,3.6
2017-11-14T17:32:46.614Z,3.6
2017-11-14T17:34:05.279Z,3.7
2017-11-14T17:35:23.919Z,3.7
2017-11-14T17:36:42.570Z,3.7
2017-11-14T17:38:01.224Z,3.7
2017-11-14T17:39:19.939Z,3.7
2017-11-14T17:40:38.620Z,3.7
2017-11-14T17:41:57.297Z,3.7
2017-11-14T17:43:15.977Z,3.7
2017-11-14T17:44:34.628Z,3.8
2017-11-14T17:45:53.284Z,3.8
2017-11-14T17:47:11.933Z,3.8
2017-11-14T17:48:30.677Z,3.8
2017-11-14T17:49:49.343Z,3.8
2017-11-14T17:51:08.020Z,3.7
2017-11-14T17:52:26.665Z,3.7
2017-11-14T17:53:45.312Z,3.7
2017-11-14T17:55:04.001Z,3.7
2017-11-14T17:56:22.647Z,3.7
2017-11-14T17:57:41.288Z,3.7
2017-11-14T17:58:59.981Z,3.7
2017-11-14T18:00:18.625Z,3.7